sensor_id;sensor_type;location;lat;lon;timestamp;P1;durP1;ratioP1;P2;durP2;ratioP2
18580;SDS011;9420;50.876;7.012;2023-09-19T00:01:39;4.03;;;1.53;;
18580;SDS011;9420;50.876;7.012;2023-09-19T00:04:07;3.70;;;1.63;;
18580;SDS011;9420;50.876;7.012;2023-09-19T00:06:35;4.27;;;1.80;;
18580;SDS011;9420;50.876;7.012;2023-09-19T00:09:02;4.00;;;1.93;;
18580;SDS011;9420;50.876;7.012;2023-09-19T00:11:28;12.03;;;2.10;;
18580;SDS011;9420;50.876;7.012;2023-09-19T00:13:56;9.67;;;2.27;;
18580;SDS011;9420;50.876;7.012;2023-09-19T00:16:24;6.57;;;1.70;;
18580;SDS011;9420;50.876;7.012;2023-09-19T00:18:51;7.83;;;1.90;;
18580;SDS011;9420;50.876;7.012;2023-09-19T00:21:19;8.87;;;1.93;;
18580;SDS011;9420;50.876;7.012;2023-09-19T00:23:46;6.87;;;1.63;;
18580;SDS011;9420;50.876;7.012;2023-09-19T00:26:12;3.10;;;1.40;;
18580;SDS011;9420;50.876;7.012;2023-09-19T00:28:39;7.07;;;1.47;;
18580;SDS011;9420;50.876;7.012;2023-09-19T00:31:07;4.77;;;1.70;;
18580;SDS011;9420;50.876;7.012;2023-09-19T00:33:34;3.87;;;1.53;;
18580;SDS011;9420;50.876;7.012;2023-09-19T00:36:01;2.90;;;1.20;;
18580;SDS011;9420;50.876;7.012;2023-09-19T00:38:32;6.77;;;1.90;;
18580;SDS011;9420;50.876;7.012;2023-09-19T00:40:58;5.00;;;1.77;;
18580;SDS011;9420;50.876;7.012;2023-09-19T00:43:26;7.83;;;1.77;;
18580;SDS011;9420;50.876;7.012;2023-09-19T00:45:54;4.27;;;1.57;;
18580;SDS011;9420;50.876;7.012;2023-09-19T00:48:21;5.53;;;1.63;;
18580;SDS011;9420;50.876;7.012;2023-09-19T00:50:49;6.03;;;2.10;;
18580;SDS011;9420;50.876;7.012;2023-09-19T00:53:19;4.63;;;1.40;;
18580;SDS011;9420;50.876;7.012;2023-09-19T00:55:53;3.83;;;1.30;;
18580;SDS011;9420;50.876;7.012;2023-09-19T00:58:21;8.63;;;1.67;;
18580;SDS011;9420;50.876;7.012;2023-09-19T01:00:47;4.57;;;1.50;;
18580;SDS011;9420;50.876;7.012;2023-09-19T01:03:15;4.87;;;1.70;;
18580;SDS011;9420;50.876;7.012;2023-09-19T01:05:43;2.50;;;1.57;;
18580;SDS011;9420;50.876;7.012;2023-09-19T01:08:10;2.33;;;1.00;;
18580;SDS011;9420;50.876;7.012;2023-09-19T01:10:37;5.60;;;1.53;;
18580;SDS011;9420;50.876;7.012;2023-09-19T01:13:20;3.87;;;1.40;;
18580;SDS011;9420;50.876;7.012;2023-09-19T01:15:55;4.30;;;1.73;;
18580;SDS011;9420;50.876;7.012;2023-09-19T01:18:35;5.17;;;1.70;;
18580;SDS011;9420;50.876;7.012;2023-09-19T01:21:11;6.97;;;2.50;;
18580;SDS011;9420;50.876;7.012;2023-09-19T01:26:43;7.20;;;2.47;;
18580;SDS011;9420;50.876;7.012;2023-09-19T01:29:26;6.73;;;1.60;;
18580;SDS011;9420;50.876;7.012;2023-09-19T01:32:05;4.97;;;1.67;;
18580;SDS011;9420;50.876;7.012;2023-09-19T01:34:44;7.80;;;1.93;;
18580;SDS011;9420;50.876;7.012;2023-09-19T01:37:13;6.07;;;1.83;;
18580;SDS011;9420;50.876;7.012;2023-09-19T01:39:43;8.20;;;1.60;;
18580;SDS011;9420;50.876;7.012;2023-09-19T01:42:15;6.80;;;1.90;;
18580;SDS011;9420;50.876;7.012;2023-09-19T01:44:51;5.63;;;1.97;;
18580;SDS011;9420;50.876;7.012;2023-09-19T01:47:28;7.30;;;2.03;;
18580;SDS011;9420;50.876;7.012;2023-09-19T01:50:02;6.57;;;1.77;;
18580;SDS011;9420;50.876;7.012;2023-09-19T01:52:41;6.77;;;2.00;;
18580;SDS011;9420;50.876;7.012;2023-09-19T01:55:13;3.83;;;1.53;;
18580;SDS011;9420;50.876;7.012;2023-09-19T01:57:52;9.63;;;1.77;;
18580;SDS011;9420;50.876;7.012;2023-09-19T02:00:24;9.03;;;1.77;;
18580;SDS011;9420;50.876;7.012;2023-09-19T02:02:56;6.83;;;2.07;;
18580;SDS011;9420;50.876;7.012;2023-09-19T02:05:24;8.37;;;1.87;;
18580;SDS011;9420;50.876;7.012;2023-09-19T02:07:52;2.97;;;1.47;;
18580;SDS011;9420;50.876;7.012;2023-09-19T02:10:20;9.63;;;1.90;;
18580;SDS011;9420;50.876;7.012;2023-09-19T02:12:47;6.13;;;1.87;;
18580;SDS011;9420;50.876;7.012;2023-09-19T02:15:14;14.80;;;2.17;;
18580;SDS011;9420;50.876;7.012;2023-09-19T02:17:42;10.10;;;1.53;;
18580;SDS011;9420;50.876;7.012;2023-09-19T02:20:11;8.10;;;2.10;;
18580;SDS011;9420;50.876;7.012;2023-09-19T02:22:40;9.00;;;1.90;;
18580;SDS011;9420;50.876;7.012;2023-09-19T02:25:07;8.00;;;2.27;;
18580;SDS011;9420;50.876;7.012;2023-09-19T02:27:34;10.97;;;2.17;;
18580;SDS011;9420;50.876;7.012;2023-09-19T02:30:01;5.57;;;1.67;;
18580;SDS011;9420;50.876;7.012;2023-09-19T02:32:29;9.13;;;2.23;;
18580;SDS011;9420;50.876;7.012;2023-09-19T02:34:56;14.93;;;2.53;;
18580;SDS011;9420;50.876;7.012;2023-09-19T02:37:25;9.03;;;2.17;;
18580;SDS011;9420;50.876;7.012;2023-09-19T02:39:52;10.50;;;2.63;;
18580;SDS011;9420;50.876;7.012;2023-09-19T02:42:18;10.07;;;2.57;;
18580;SDS011;9420;50.876;7.012;2023-09-19T02:44:45;11.93;;;3.40;;
18580;SDS011;9420;50.876;7.012;2023-09-19T02:47:13;11.77;;;2.10;;
18580;SDS011;9420;50.876;7.012;2023-09-19T02:49:41;9.10;;;2.53;;
18580;SDS011;9420;50.876;7.012;2023-09-19T02:52:08;12.43;;;1.70;;
18580;SDS011;9420;50.876;7.012;2023-09-19T02:54:38;6.70;;;1.37;;
18580;SDS011;9420;50.876;7.012;2023-09-19T02:57:05;8.97;;;2.53;;
18580;SDS011;9420;50.876;7.012;2023-09-19T02:59:33;12.47;;;2.83;;
18580;SDS011;9420;50.876;7.012;2023-09-19T03:02:02;7.47;;;2.07;;
18580;SDS011;9420;50.876;7.012;2023-09-19T03:04:29;9.63;;;2.33;;
18580;SDS011;9420;50.876;7.012;2023-09-19T03:06:58;10.30;;;2.03;;
18580;SDS011;9420;50.876;7.012;2023-09-19T03:09:26;7.13;;;1.70;;
18580;SDS011;9420;50.876;7.012;2023-09-19T03:11:54;9.63;;;1.67;;
18580;SDS011;9420;50.876;7.012;2023-09-19T03:14:21;13.87;;;3.73;;
18580;SDS011;9420;50.876;7.012;2023-09-19T03:16:49;12.47;;;3.00;;
18580;SDS011;9420;50.876;7.012;2023-09-19T03:19:17;16.30;;;2.70;;
18580;SDS011;9420;50.876;7.012;2023-09-19T03:21:45;12.57;;;2.77;;
18580;SDS011;9420;50.876;7.012;2023-09-19T03:24:15;9.67;;;2.93;;
18580;SDS011;9420;50.876;7.012;2023-09-19T03:26:42;11.30;;;2.53;;
18580;SDS011;9420;50.876;7.012;2023-09-19T03:29:11;7.93;;;2.60;;
18580;SDS011;9420;50.876;7.012;2023-09-19T03:31:39;10.90;;;2.90;;
18580;SDS011;9420;50.876;7.012;2023-09-19T03:34:05;10.33;;;2.40;;
18580;SDS011;9420;50.876;7.012;2023-09-19T03:36:34;5.77;;;2.07;;
18580;SDS011;9420;50.876;7.012;2023-09-19T03:39:01;9.20;;;2.97;;
18580;SDS011;9420;50.876;7.012;2023-09-19T03:41:30;10.13;;;2.70;;
18580;SDS011;9420;50.876;7.012;2023-09-19T03:43:56;6.47;;;2.40;;
18580;SDS011;9420;50.876;7.012;2023-09-19T03:46:24;8.90;;;3.07;;
18580;SDS011;9420;50.876;7.012;2023-09-19T03:48:51;7.47;;;2.90;;
18580;SDS011;9420;50.876;7.012;2023-09-19T03:51:19;11.23;;;2.07;;
18580;SDS011;9420;50.876;7.012;2023-09-19T03:53:46;7.53;;;2.53;;
18580;SDS011;9420;50.876;7.012;2023-09-19T03:56:14;9.03;;;2.80;;
18580;SDS011;9420;50.876;7.012;2023-09-19T03:58:40;6.93;;;2.00;;
18580;SDS011;9420;50.876;7.012;2023-09-19T04:01:07;10.27;;;2.47;;
18580;SDS011;9420;50.876;7.012;2023-09-19T04:03:35;12.27;;;2.63;;
18580;SDS011;9420;50.876;7.012;2023-09-19T04:06:11;9.23;;;2.83;;
18580;SDS011;9420;50.876;7.012;2023-09-19T04:08:38;9.30;;;2.67;;
18580;SDS011;9420;50.876;7.012;2023-09-19T04:11:04;14.17;;;2.77;;
18580;SDS011;9420;50.876;7.012;2023-09-19T04:13:31;9.33;;;2.70;;
18580;SDS011;9420;50.876;7.012;2023-09-19T04:15:57;9.33;;;2.07;;
18580;SDS011;9420;50.876;7.012;2023-09-19T04:18:24;11.03;;;2.90;;
18580;SDS011;9420;50.876;7.012;2023-09-19T04:20:53;10.43;;;2.37;;
18580;SDS011;9420;50.876;7.012;2023-09-19T04:23:21;10.73;;;2.40;;
18580;SDS011;9420;50.876;7.012;2023-09-19T04:25:48;14.73;;;3.27;;
18580;SDS011;9420;50.876;7.012;2023-09-19T04:28:15;9.87;;;2.60;;
18580;SDS011;9420;50.876;7.012;2023-09-19T04:30:42;11.23;;;3.03;;
18580;SDS011;9420;50.876;7.012;2023-09-19T04:33:09;11.43;;;2.63;;
18580;SDS011;9420;50.876;7.012;2023-09-19T04:35:36;12.63;;;2.23;;
18580;SDS011;9420;50.876;7.012;2023-09-19T04:38:05;9.57;;;2.60;;
18580;SDS011;9420;50.876;7.012;2023-09-19T04:40:32;7.70;;;2.50;;
18580;SDS011;9420;50.876;7.012;2023-09-19T04:42:59;15.20;;;2.50;;
18580;SDS011;9420;50.876;7.012;2023-09-19T04:45:26;10.17;;;2.40;;
18580;SDS011;9420;50.876;7.012;2023-09-19T04:47:54;9.73;;;2.80;;
18580;SDS011;9420;50.876;7.012;2023-09-19T04:50:21;8.33;;;2.23;;
18580;SDS011;9420;50.876;7.012;2023-09-19T04:52:49;11.97;;;2.60;;
18580;SDS011;9420;50.876;7.012;2023-09-19T04:55:18;15.60;;;3.33;;
18580;SDS011;9420;50.876;7.012;2023-09-19T04:57:45;7.87;;;1.90;;
18580;SDS011;9420;50.876;7.012;2023-09-19T05:00:13;7.77;;;3.17;;
18580;SDS011;9420;50.876;7.012;2023-09-19T05:02:42;9.23;;;2.70;;
18580;SDS011;9420;50.876;7.012;2023-09-19T05:05:09;10.03;;;2.07;;
18580;SDS011;9420;50.876;7.012;2023-09-19T05:07:37;9.47;;;2.07;;
18580;SDS011;9420;50.876;7.012;2023-09-19T05:10:05;10.33;;;2.60;;
18580;SDS011;9420;50.876;7.012;2023-09-19T05:12:34;11.73;;;2.53;;
18580;SDS011;9420;50.876;7.012;2023-09-19T05:15:01;6.90;;;2.73;;
18580;SDS011;9420;50.876;7.012;2023-09-19T05:17:29;12.03;;;2.43;;
18580;SDS011;9420;50.876;7.012;2023-09-19T05:19:56;11.50;;;2.57;;
18580;SDS011;9420;50.876;7.012;2023-09-19T05:22:23;10.50;;;2.23;;
18580;SDS011;9420;50.876;7.012;2023-09-19T05:24:50;9.00;;;2.43;;
18580;SDS011;9420;50.876;7.012;2023-09-19T05:27:18;11.37;;;2.47;;
18580;SDS011;9420;50.876;7.012;2023-09-19T05:29:47;7.00;;;2.27;;
18580;SDS011;9420;50.876;7.012;2023-09-19T05:32:15;13.97;;;2.63;;
18580;SDS011;9420;50.876;7.012;2023-09-19T05:34:44;8.50;;;2.30;;
18580;SDS011;9420;50.876;7.012;2023-09-19T05:37:12;8.70;;;2.60;;
18580;SDS011;9420;50.876;7.012;2023-09-19T05:39:41;14.20;;;2.80;;
18580;SDS011;9420;50.876;7.012;2023-09-19T05:42:07;8.33;;;2.23;;
18580;SDS011;9420;50.876;7.012;2023-09-19T05:44:34;7.47;;;2.17;;
18580;SDS011;9420;50.876;7.012;2023-09-19T05:47:02;8.50;;;2.30;;
18580;SDS011;9420;50.876;7.012;2023-09-19T05:49:29;12.40;;;2.20;;
18580;SDS011;9420;50.876;7.012;2023-09-19T05:51:56;9.63;;;2.47;;
18580;SDS011;9420;50.876;7.012;2023-09-19T05:54:24;20.17;;;3.23;;
18580;SDS011;9420;50.876;7.012;2023-09-19T05:56:50;7.63;;;2.50;;
18580;SDS011;9420;50.876;7.012;2023-09-19T05:59:18;11.17;;;3.13;;
18580;SDS011;9420;50.876;7.012;2023-09-19T06:01:45;10.20;;;2.33;;
18580;SDS011;9420;50.876;7.012;2023-09-19T06:04:13;12.03;;;2.27;;
18580;SDS011;9420;50.876;7.012;2023-09-19T06:06:40;9.17;;;2.50;;
18580;SDS011;9420;50.876;7.012;2023-09-19T06:09:07;9.23;;;2.10;;
18580;SDS011;9420;50.876;7.012;2023-09-19T06:11:34;8.47;;;2.43;;
18580;SDS011;9420;50.876;7.012;2023-09-19T06:14:01;10.43;;;2.63;;
18580;SDS011;9420;50.876;7.012;2023-09-19T06:16:28;11.17;;;2.50;;
18580;SDS011;9420;50.876;7.012;2023-09-19T06:18:54;7.77;;;2.37;;
18580;SDS011;9420;50.876;7.012;2023-09-19T06:21:23;13.63;;;2.27;;
18580;SDS011;9420;50.876;7.012;2023-09-19T06:23:50;11.03;;;2.00;;
18580;SDS011;9420;50.876;7.012;2023-09-19T06:26:17;6.93;;;2.30;;
18580;SDS011;9420;50.876;7.012;2023-09-19T06:28:44;12.27;;;3.03;;
18580;SDS011;9420;50.876;7.012;2023-09-19T06:31:10;10.53;;;2.20;;
18580;SDS011;9420;50.876;7.012;2023-09-19T06:33:38;5.63;;;2.13;;
18580;SDS011;9420;50.876;7.012;2023-09-19T06:36:05;10.03;;;2.63;;
18580;SDS011;9420;50.876;7.012;2023-09-19T06:38:34;7.03;;;2.83;;
18580;SDS011;9420;50.876;7.012;2023-09-19T06:41:01;7.20;;;2.47;;
18580;SDS011;9420;50.876;7.012;2023-09-19T06:43:29;7.73;;;2.47;;
18580;SDS011;9420;50.876;7.012;2023-09-19T06:45:58;15.43;;;2.60;;
18580;SDS011;9420;50.876;7.012;2023-09-19T06:48:25;12.93;;;2.40;;
18580;SDS011;9420;50.876;7.012;2023-09-19T06:50:54;6.97;;;2.93;;
18580;SDS011;9420;50.876;7.012;2023-09-19T06:53:23;11.47;;;2.20;;
18580;SDS011;9420;50.876;7.012;2023-09-19T06:55:51;7.97;;;2.60;;
18580;SDS011;9420;50.876;7.012;2023-09-19T06:58:18;8.73;;;2.10;;
18580;SDS011;9420;50.876;7.012;2023-09-19T07:00:45;11.70;;;2.90;;
18580;SDS011;9420;50.876;7.012;2023-09-19T07:03:13;8.07;;;2.23;;
18580;SDS011;9420;50.876;7.012;2023-09-19T07:05:41;11.93;;;2.40;;
18580;SDS011;9420;50.876;7.012;2023-09-19T07:08:09;8.53;;;2.63;;
18580;SDS011;9420;50.876;7.012;2023-09-19T07:10:38;12.20;;;2.57;;
18580;SDS011;9420;50.876;7.012;2023-09-19T07:13:07;14.63;;;3.50;;
18580;SDS011;9420;50.876;7.012;2023-09-19T07:15:35;13.67;;;3.20;;
18580;SDS011;9420;50.876;7.012;2023-09-19T07:18:04;9.50;;;2.63;;
18580;SDS011;9420;50.876;7.012;2023-09-19T07:20:32;10.67;;;2.63;;
18580;SDS011;9420;50.876;7.012;2023-09-19T07:22:59;8.83;;;3.03;;
18580;SDS011;9420;50.876;7.012;2023-09-19T07:25:26;7.67;;;2.23;;
18580;SDS011;9420;50.876;7.012;2023-09-19T07:27:54;10.80;;;2.13;;
18580;SDS011;9420;50.876;7.012;2023-09-19T07:30:23;14.97;;;2.50;;
18580;SDS011;9420;50.876;7.012;2023-09-19T07:32:50;12.43;;;2.30;;
18580;SDS011;9420;50.876;7.012;2023-09-19T07:35:17;10.43;;;1.87;;
18580;SDS011;9420;50.876;7.012;2023-09-19T07:37:45;8.70;;;2.13;;
18580;SDS011;9420;50.876;7.012;2023-09-19T07:40:14;19.43;;;3.30;;
18580;SDS011;9420;50.876;7.012;2023-09-19T07:42:40;8.90;;;1.87;;
18580;SDS011;9420;50.876;7.012;2023-09-19T07:45:09;14.63;;;2.80;;
18580;SDS011;9420;50.876;7.012;2023-09-19T07:47:43;15.33;;;2.70;;
18580;SDS011;9420;50.876;7.012;2023-09-19T07:50:10;9.13;;;2.87;;
18580;SDS011;9420;50.876;7.012;2023-09-19T07:52:37;6.30;;;2.07;;
18580;SDS011;9420;50.876;7.012;2023-09-19T07:55:04;11.13;;;2.63;;
18580;SDS011;9420;50.876;7.012;2023-09-19T07:57:34;19.53;;;3.53;;
18580;SDS011;9420;50.876;7.012;2023-09-19T08:00:01;13.33;;;3.33;;
18580;SDS011;9420;50.876;7.012;2023-09-19T08:02:29;8.27;;;2.03;;
18580;SDS011;9420;50.876;7.012;2023-09-19T08:04:58;11.67;;;2.97;;
18580;SDS011;9420;50.876;7.012;2023-09-19T08:07:27;22.63;;;2.87;;
18580;SDS011;9420;50.876;7.012;2023-09-19T08:09:55;8.97;;;2.77;;
18580;SDS011;9420;50.876;7.012;2023-09-19T08:12:23;14.87;;;2.70;;
18580;SDS011;9420;50.876;7.012;2023-09-19T08:14:50;13.17;;;2.50;;
18580;SDS011;9420;50.876;7.012;2023-09-19T08:17:17;13.30;;;2.77;;
18580;SDS011;9420;50.876;7.012;2023-09-19T08:19:45;11.53;;;3.27;;
18580;SDS011;9420;50.876;7.012;2023-09-19T08:22:13;10.40;;;2.47;;
18580;SDS011;9420;50.876;7.012;2023-09-19T08:24:42;14.73;;;2.83;;
18580;SDS011;9420;50.876;7.012;2023-09-19T08:27:09;11.70;;;2.60;;
18580;SDS011;9420;50.876;7.012;2023-09-19T08:29:37;11.47;;;3.87;;
18580;SDS011;9420;50.876;7.012;2023-09-19T08:32:04;12.20;;;2.10;;
18580;SDS011;9420;50.876;7.012;2023-09-19T08:34:31;10.47;;;2.73;;
18580;SDS011;9420;50.876;7.012;2023-09-19T08:36:59;11.00;;;2.10;;
18580;SDS011;9420;50.876;7.012;2023-09-19T08:39:27;13.40;;;2.37;;
18580;SDS011;9420;50.876;7.012;2023-09-19T08:41:59;9.17;;;2.20;;
18580;SDS011;9420;50.876;7.012;2023-09-19T08:44:26;13.70;;;2.97;;
18580;SDS011;9420;50.876;7.012;2023-09-19T08:46:55;9.80;;;2.63;;
18580;SDS011;9420;50.876;7.012;2023-09-19T08:49:32;11.33;;;3.00;;
18580;SDS011;9420;50.876;7.012;2023-09-19T08:52:04;9.53;;;1.97;;
18580;SDS011;9420;50.876;7.012;2023-09-19T08:54:42;9.13;;;2.00;;
18580;SDS011;9420;50.876;7.012;2023-09-19T08:57:10;7.80;;;2.03;;
18580;SDS011;9420;50.876;7.012;2023-09-19T08:59:39;8.63;;;1.83;;
18580;SDS011;9420;50.876;7.012;2023-09-19T09:02:10;11.83;;;2.63;;
18580;SDS011;9420;50.876;7.012;2023-09-19T09:04:38;12.27;;;2.50;;
18580;SDS011;9420;50.876;7.012;2023-09-19T09:07:09;10.63;;;2.60;;
18580;SDS011;9420;50.876;7.012;2023-09-19T09:09:37;7.30;;;1.60;;
18580;SDS011;9420;50.876;7.012;2023-09-19T09:12:09;7.10;;;2.17;;
18580;SDS011;9420;50.876;7.012;2023-09-19T09:14:38;9.37;;;2.10;;
18580;SDS011;9420;50.876;7.012;2023-09-19T09:17:05;6.47;;;1.70;;
18580;SDS011;9420;50.876;7.012;2023-09-19T09:19:32;12.73;;;2.13;;
18580;SDS011;9420;50.876;7.012;2023-09-19T09:22:05;9.63;;;2.43;;
18580;SDS011;9420;50.876;7.012;2023-09-19T09:24:33;9.73;;;1.90;;
18580;SDS011;9420;50.876;7.012;2023-09-19T09:27:03;9.83;;;1.93;;
18580;SDS011;9420;50.876;7.012;2023-09-19T09:29:44;15.80;;;2.10;;
18580;SDS011;9420;50.876;7.012;2023-09-19T09:32:19;5.50;;;1.97;;
18580;SDS011;9420;50.876;7.012;2023-09-19T09:34:46;7.13;;;1.63;;
18580;SDS011;9420;50.876;7.012;2023-09-19T09:37:15;5.43;;;2.03;;
18580;SDS011;9420;50.876;7.012;2023-09-19T09:39:51;8.07;;;2.20;;
18580;SDS011;9420;50.876;7.012;2023-09-19T09:42:30;9.67;;;2.13;;
18580;SDS011;9420;50.876;7.012;2023-09-19T09:45:14;7.03;;;1.97;;
18580;SDS011;9420;50.876;7.012;2023-09-19T09:47:42;4.93;;;1.70;;
18580;SDS011;9420;50.876;7.012;2023-09-19T09:50:22;6.03;;;1.70;;
18580;SDS011;9420;50.876;7.012;2023-09-19T09:52:54;9.07;;;2.47;;
18580;SDS011;9420;50.876;7.012;2023-09-19T09:55:26;13.50;;;1.80;;
18580;SDS011;9420;50.876;7.012;2023-09-19T09:57:58;7.00;;;2.13;;
18580;SDS011;9420;50.876;7.012;2023-09-19T10:00:53;15.57;;;2.47;;
18580;SDS011;9420;50.876;7.012;2023-09-19T10:03:30;11.17;;;2.20;;
18580;SDS011;9420;50.876;7.012;2023-09-19T10:05:58;6.63;;;2.33;;
18580;SDS011;9420;50.876;7.012;2023-09-19T10:08:33;5.30;;;2.20;;
18580;SDS011;9420;50.876;7.012;2023-09-19T10:11:01;7.23;;;1.50;;
18580;SDS011;9420;50.876;7.012;2023-09-19T10:13:44;10.37;;;2.33;;
18580;SDS011;9420;50.876;7.012;2023-09-19T10:16:13;7.87;;;1.70;;
18580;SDS011;9420;50.876;7.012;2023-09-19T10:18:43;5.40;;;1.87;;
18580;SDS011;9420;50.876;7.012;2023-09-19T10:21:12;11.23;;;1.93;;
18580;SDS011;9420;50.876;7.012;2023-09-19T10:23:39;5.17;;;1.77;;
18580;SDS011;9420;50.876;7.012;2023-09-19T10:26:08;4.50;;;1.70;;
18580;SDS011;9420;50.876;7.012;2023-09-19T10:28:35;9.57;;;1.90;;
18580;SDS011;9420;50.876;7.012;2023-09-19T10:31:03;6.00;;;1.47;;
18580;SDS011;9420;50.876;7.012;2023-09-19T10:33:35;6.27;;;1.90;;
18580;SDS011;9420;50.876;7.012;2023-09-19T10:36:03;7.80;;;1.80;;
18580;SDS011;9420;50.876;7.012;2023-09-19T10:38:31;4.67;;;1.90;;
18580;SDS011;9420;50.876;7.012;2023-09-19T10:41:01;6.17;;;2.03;;
18580;SDS011;9420;50.876;7.012;2023-09-19T10:43:29;7.23;;;1.93;;
18580;SDS011;9420;50.876;7.012;2023-09-19T10:46:00;4.37;;;1.80;;
18580;SDS011;9420;50.876;7.012;2023-09-19T10:48:29;3.20;;;1.63;;
18580;SDS011;9420;50.876;7.012;2023-09-19T10:50:58;3.63;;;1.60;;
18580;SDS011;9420;50.876;7.012;2023-09-19T10:53:39;7.90;;;1.90;;
18580;SDS011;9420;50.876;7.012;2023-09-19T10:56:09;4.83;;;1.80;;
18580;SDS011;9420;50.876;7.012;2023-09-19T10:58:42;9.37;;;2.07;;
18580;SDS011;9420;50.876;7.012;2023-09-19T11:01:10;5.20;;;1.97;;
18580;SDS011;9420;50.876;7.012;2023-09-19T11:03:38;5.23;;;1.50;;
18580;SDS011;9420;50.876;7.012;2023-09-19T11:06:11;7.83;;;1.70;;
18580;SDS011;9420;50.876;7.012;2023-09-19T11:08:52;6.50;;;2.27;;
18580;SDS011;9420;50.876;7.012;2023-09-19T11:20:15;6.07;;;2.00;;
18580;SDS011;9420;50.876;7.012;2023-09-19T11:23:21;11.37;;;2.43;;
18580;SDS011;9420;50.876;7.012;2023-09-19T11:25:52;2.93;;;1.57;;
18580;SDS011;9420;50.876;7.012;2023-09-19T11:28:34;7.67;;;1.90;;
18580;SDS011;9420;50.876;7.012;2023-09-19T11:40:15;6.80;;;2.33;;
18580;SDS011;9420;50.876;7.012;2023-09-19T11:42:42;7.70;;;2.27;;
18580;SDS011;9420;50.876;7.012;2023-09-19T11:48:12;9.00;;;2.30;;
18580;SDS011;9420;50.876;7.012;2023-09-19T11:50:41;4.80;;;1.80;;
18580;SDS011;9420;50.876;7.012;2023-09-19T11:53:09;7.93;;;1.80;;
18580;SDS011;9420;50.876;7.012;2023-09-19T11:55:37;6.00;;;1.60;;
18580;SDS011;9420;50.876;7.012;2023-09-19T11:58:04;6.70;;;1.67;;
18580;SDS011;9420;50.876;7.012;2023-09-19T12:00:33;4.13;;;1.93;;
18580;SDS011;9420;50.876;7.012;2023-09-19T12:03:02;6.77;;;2.17;;
18580;SDS011;9420;50.876;7.012;2023-09-19T12:05:34;7.20;;;1.83;;
18580;SDS011;9420;50.876;7.012;2023-09-19T12:08:02;7.43;;;1.67;;
18580;SDS011;9420;50.876;7.012;2023-09-19T12:10:33;4.13;;;1.60;;
18580;SDS011;9420;50.876;7.012;2023-09-19T12:13:01;5.00;;;1.50;;
18580;SDS011;9420;50.876;7.012;2023-09-19T12:15:30;3.58;;;1.67;;
18580;SDS011;9420;50.876;7.012;2023-09-19T12:18:04;5.60;;;1.30;;
18580;SDS011;9420;50.876;7.012;2023-09-19T12:20:41;4.53;;;1.80;;
18580;SDS011;9420;50.876;7.012;2023-09-19T12:23:13;7.05;;;1.80;;
18580;SDS011;9420;50.876;7.012;2023-09-19T12:25:41;5.60;;;1.48;;
18580;SDS011;9420;50.876;7.012;2023-09-19T12:28:13;6.20;;;1.45;;
18580;SDS011;9420;50.876;7.012;2023-09-19T12:30:41;7.88;;;2.30;;
18580;SDS011;9420;50.876;7.012;2023-09-19T12:33:14;3.75;;;1.70;;
18580;SDS011;9420;50.876;7.012;2023-09-19T12:35:44;5.03;;;1.75;;
18580;SDS011;9420;50.876;7.012;2023-09-19T12:38:10;4.15;;;1.73;;
18580;SDS011;9420;50.876;7.012;2023-09-19T12:40:38;7.07;;;1.83;;
18580;SDS011;9420;50.876;7.012;2023-09-19T12:43:07;7.10;;;2.10;;
18580;SDS011;9420;50.876;7.012;2023-09-19T12:45:42;2.60;;;1.33;;
18580;SDS011;9420;50.876;7.012;2023-09-19T12:48:22;5.43;;;2.08;;
18580;SDS011;9420;50.876;7.012;2023-09-19T12:51:02;7.05;;;1.77;;
18580;SDS011;9420;50.876;7.012;2023-09-19T12:53:31;3.60;;;1.90;;
18580;SDS011;9420;50.876;7.012;2023-09-19T12:55:59;3.80;;;1.85;;
18580;SDS011;9420;50.876;7.012;2023-09-19T12:58:26;6.55;;;1.63;;
18580;SDS011;9420;50.876;7.012;2023-09-19T13:00:54;7.95;;;2.25;;
18580;SDS011;9420;50.876;7.012;2023-09-19T13:03:25;3.00;;;1.40;;
18580;SDS011;9420;50.876;7.012;2023-09-19T13:05:54;3.78;;;1.20;;
18580;SDS011;9420;50.876;7.012;2023-09-19T13:08:26;4.72;;;1.55;;
18580;SDS011;9420;50.876;7.012;2023-09-19T13:11:01;5.00;;;1.77;;
18580;SDS011;9420;50.876;7.012;2023-09-19T13:13:28;7.53;;;2.17;;
18580;SDS011;9420;50.876;7.012;2023-09-19T13:15:56;8.57;;;1.65;;
18580;SDS011;9420;50.876;7.012;2023-09-19T13:18:23;6.82;;;2.17;;
18580;SDS011;9420;50.876;7.012;2023-09-19T13:21:05;5.18;;;1.75;;
18580;SDS011;9420;50.876;7.012;2023-09-19T13:23:35;4.85;;;1.70;;
18580;SDS011;9420;50.876;7.012;2023-09-19T13:26:02;3.63;;;1.40;;
18580;SDS011;9420;50.876;7.012;2023-09-19T13:28:29;1.50;;;0.85;;
18580;SDS011;9420;50.876;7.012;2023-09-19T13:30:57;4.90;;;1.30;;
18580;SDS011;9420;50.876;7.012;2023-09-19T13:33:24;11.40;;;1.90;;
18580;SDS011;9420;50.876;7.012;2023-09-19T13:35:51;4.55;;;1.40;;
18580;SDS011;9420;50.876;7.012;2023-09-19T13:38:18;4.07;;;1.33;;
18580;SDS011;9420;50.876;7.012;2023-09-19T13:40:47;3.72;;;1.08;;
18580;SDS011;9420;50.876;7.012;2023-09-19T13:43:17;4.18;;;1.17;;
18580;SDS011;9420;50.876;7.012;2023-09-19T13:45:47;2.92;;;1.38;;
18580;SDS011;9420;50.876;7.012;2023-09-19T13:48:16;3.10;;;1.23;;
18580;SDS011;9420;50.876;7.012;2023-09-19T13:50:45;3.67;;;1.23;;
18580;SDS011;9420;50.876;7.012;2023-09-19T13:53:12;2.80;;;1.00;;
18580;SDS011;9420;50.876;7.012;2023-09-19T13:55:38;5.73;;;1.13;;
18580;SDS011;9420;50.876;7.012;2023-09-19T13:58:05;3.37;;;1.20;;
18580;SDS011;9420;50.876;7.012;2023-09-19T14:00:32;2.67;;;1.00;;
18580;SDS011;9420;50.876;7.012;2023-09-19T14:03:00;2.83;;;0.73;;
18580;SDS011;9420;50.876;7.012;2023-09-19T14:05:28;2.90;;;0.83;;
18580;SDS011;9420;50.876;7.012;2023-09-19T14:07:55;1.83;;;0.60;;
18580;SDS011;9420;50.876;7.012;2023-09-19T14:10:22;5.30;;;1.40;;
18580;SDS011;9420;50.876;7.012;2023-09-19T14:12:49;2.83;;;0.63;;
18580;SDS011;9420;50.876;7.012;2023-09-19T14:15:16;5.83;;;1.20;;
18580;SDS011;9420;50.876;7.012;2023-09-19T14:17:42;6.17;;;1.20;;
18580;SDS011;9420;50.876;7.012;2023-09-19T14:20:10;3.43;;;1.30;;
18580;SDS011;9420;50.876;7.012;2023-09-19T14:22:38;1.97;;;1.00;;
18580;SDS011;9420;50.876;7.012;2023-09-19T14:25:05;1.40;;;0.60;;
18580;SDS011;9420;50.876;7.012;2023-09-19T14:27:32;4.03;;;1.33;;
18580;SDS011;9420;50.876;7.012;2023-09-19T14:30:00;3.80;;;1.00;;
18580;SDS011;9420;50.876;7.012;2023-09-19T14:32:27;6.40;;;1.33;;
18580;SDS011;9420;50.876;7.012;2023-09-19T14:34:53;1.70;;;0.90;;
18580;SDS011;9420;50.876;7.012;2023-09-19T14:37:20;3.10;;;1.00;;
18580;SDS011;9420;50.876;7.012;2023-09-19T14:39:48;2.10;;;0.80;;
18580;SDS011;9420;50.876;7.012;2023-09-19T14:42:15;5.10;;;1.50;;
18580;SDS011;9420;50.876;7.012;2023-09-19T14:44:42;4.53;;;0.87;;
18580;SDS011;9420;50.876;7.012;2023-09-19T14:47:09;3.93;;;0.90;;
18580;SDS011;9420;50.876;7.012;2023-09-19T14:49:38;4.57;;;1.03;;
18580;SDS011;9420;50.876;7.012;2023-09-19T14:52:07;4.50;;;1.43;;
18580;SDS011;9420;50.876;7.012;2023-09-19T14:54:34;4.53;;;1.50;;
18580;SDS011;9420;50.876;7.012;2023-09-19T14:57:04;3.03;;;1.10;;
18580;SDS011;9420;50.876;7.012;2023-09-19T14:59:32;3.80;;;1.13;;
18580;SDS011;9420;50.876;7.012;2023-09-19T15:02:02;1.67;;;0.60;;
18580;SDS011;9420;50.876;7.012;2023-09-19T15:04:29;4.27;;;1.10;;
18580;SDS011;9420;50.876;7.012;2023-09-19T15:06:56;2.03;;;0.87;;
18580;SDS011;9420;50.876;7.012;2023-09-19T15:09:22;2.40;;;0.80;;
18580;SDS011;9420;50.876;7.012;2023-09-19T15:11:51;3.33;;;1.03;;
18580;SDS011;9420;50.876;7.012;2023-09-19T15:14:19;4.20;;;1.10;;
18580;SDS011;9420;50.876;7.012;2023-09-19T15:16:45;6.37;;;1.33;;
18580;SDS011;9420;50.876;7.012;2023-09-19T15:19:13;3.87;;;1.17;;
18580;SDS011;9420;50.876;7.012;2023-09-19T15:21:40;4.33;;;1.20;;
18580;SDS011;9420;50.876;7.012;2023-09-19T15:24:07;3.30;;;0.73;;
18580;SDS011;9420;50.876;7.012;2023-09-19T15:26:35;3.03;;;0.90;;
18580;SDS011;9420;50.876;7.012;2023-09-19T15:29:05;5.53;;;0.90;;
18580;SDS011;9420;50.876;7.012;2023-09-19T15:31:34;3.03;;;0.90;;
18580;SDS011;9420;50.876;7.012;2023-09-19T15:34:01;2.70;;;0.70;;